Time;durP1;ratioP1;P1;durP2;ratioP2;P2;SDS_P1;SDS_P2;PMS_P1;PMS_P2;Temp;Humidity;BMP_temperature;BMP_pressure;BME280_temperature;BME280_humidity;BME280_pressure;Samples;Min_cycle;Max_cycle;Signal;HPM_P1;HPM_P2
2023/01/20 00:05:02;;;;;;;105.90;37.50;;;;;;;-0.60;100.00;97983.21;221862;1276;22845;-74
2023/01/20 00:10:06;;;;;;;97.70;35.40;;;;;;;-0.62;100.00;97980.38;221952;1272;22541;-74
2023/01/20 00:15:13;;;;;;;103.90;35.50;;;;;;;-0.68;100.00;97978.98;221819;1266;22544;-74
2023/01/20 00:20:17;;;;;;;98.70;35.70;;;;;;;-0.79;100.00;97976.08;222016;1276;22530;-73
2023/01/20 00:25:19;;;;;;;93.40;33.40;;;;;;;-0.91;100.00;97978.70;221950;1276;22546;-74
2023/01/20 00:30:22;;;;;;;100.40;31.90;;;;;;;-1.05;100.00;97985.98;221803;1272;22579;-74
2023/01/20 00:35:25;;;;;;;86.40;31.60;;;;;;;-1.21;100.00;97981.91;221891;1260;22891;-73
2023/01/20 00:40:27;;;;;;;96.60;32.30;;;;;;;-1.35;100.00;97978.33;221827;1275;25351;-74
2023/01/20 00:45:29;;;;;;;80.50;29.40;;;;;;;-1.47;100.00;97979.64;221796;1275;22546;-73
2023/01/20 00:50:32;;;;;;;87.40;31.00;;;;;;;-1.60;100.00;97989.98;221868;1272;22517;-74
2023/01/20 00:55:34;;;;;;;96.90;31.40;;;;;;;-1.72;100.00;97992.91;221859;1276;25416;-74
2023/01/20 01:00:36;;;;;;;98.10;33.40;;;;;;;-1.81;100.00;97986.96;221818;1275;25258;-73
2023/01/20 01:05:38;;;;;;;87.20;31.50;;;;;;;-1.90;100.00;97985.41;221905;1276;22565;-74
2023/01/20 01:10:41;;;;;;;100.50;32.80;;;;;;;-1.96;100.00;97990.34;221819;1276;22549;-73
2023/01/20 01:15:57;;;;;;;74.90;24.40;;;;;;;-2.04;100.00;98016.98;221874;1260;22531;-73
2023/01/20 01:21:05;;;;;;;87.50;28.70;;;;;;;-2.10;100.00;98033.16;221826;1276;24258;-74
2023/01/20 01:26:07;;;;;;;96.10;30.90;;;;;;;-2.11;100.00;98028.05;221986;1272;22563;-74
2023/01/20 01:31:09;;;;;;;91.70;32.90;;;;;;;-2.08;100.00;98033.56;222027;1272;22823;-73
2023/01/20 01:36:13;;;;;;;83.80;27.00;;;;;;;-2.06;100.00;98049.85;221812;1276;24384;-74
2023/01/20 01:41:16;;;;;;;102.10;33.30;;;;;;;-2.06;100.00;98059.17;222011;1276;22797;-74
2023/01/20 01:46:21;;;;;;;87.80;29.20;;;;;;;-2.07;100.00;98081.13;222019;1276;22529;-74
2023/01/20 01:52:00;;;;;;;77.60;26.70;;;;;;;-2.11;100.00;98083.44;222010;1276;24385;-73
2023/01/20 01:57:06;;;;;;;95.20;31.80;;;;;;;-2.12;100.00;98061.81;221912;1276;22552;-76
2023/01/20 02:02:08;;;;;;;103.00;34.90;;;;;;;-2.11;100.00;98049.84;221959;1276;22596;-74
2023/01/20 02:07:17;;;;;;;103.80;37.70;;;;;;;-2.11;100.00;98058.77;221745;1275;22684;-74
2023/01/20 02:12:21;;;;;;;108.30;36.40;;;;;;;-2.13;100.00;98065.05;221760;1276;22583;-74
2023/01/20 02:17:37;;;;;;;116.90;41.70;;;;;;;-2.19;100.00;98054.68;221936;1275;22547;-72
2023/01/20 02:23:00;;;;;;;131.70;43.50;;;;;;;-2.25;100.00;98066.53;221934;1273;24230;-73
2023/01/20 02:28:17;;;;;;;121.90;43.00;;;;;;;-2.31;100.00;98067.25;221955;1276;24457;-73
2023/01/20 02:33:30;;;;;;;115.00;38.40;;;;;;;-2.38;100.00;98070.91;221961;1276;22566;-73
2023/01/20 02:38:59;;;;;;;131.90;43.30;;;;;;;-2.48;100.00;98073.02;221893;1258;25338;-73
2023/01/20 02:44:27;;;;;;;105.70;38.90;;;;;;;-2.53;100.00;98046.09;221887;1276;25453;-73
2023/01/20 02:49:39;;;;;;;107.90;34.90;;;;;;;-2.57;100.00;98047.30;221986;1273;22694;-74
2023/01/20 02:54:49;;;;;;;106.10;36.80;;;;;;;-2.60;100.00;98042.16;222241;1276;24191;-74
2023/01/20 02:59:56;;;;;;;106.60;35.70;;;;;;;-2.62;100.00;98031.54;221622;1276;25477;-74
2023/01/20 03:05:11;;;;;;;104.80;35.20;;;;;;;-2.69;100.00;98029.57;221822;1276;25612;-73
2023/01/20 03:10:18;;;;;;;113.50;35.40;;;;;;;-2.74;100.00;98042.66;221907;1273;22689;-73
2023/01/20 03:15:25;;;;;;;107.10;33.50;;;;;;;-2.77;100.00;98051.48;222028;1274;22652;-73
2023/01/20 03:20:27;;;;;;;120.50;38.60;;;;;;;-2.81;100.00;98057.77;221856;1276;25160;-73
2023/01/20 03:25:29;;;;;;;117.50;39.40;;;;;;;-2.83;100.00;98056.51;221911;1276;22747;-73
2023/01/20 03:30:31;;;;;;;112.40;38.50;;;;;;;-2.83;100.00;98053.82;221868;1276;22592;-74
2023/01/20 03:35:34;;;;;;;102.90;36.50;;;;;;;-2.85;100.00;98067.47;221832;1276;23096;-73
2023/01/20 03:40:47;;;;;;;113.10;37.50;;;;;;;-2.87;100.00;98078.34;221933;1276;24279;-74
2023/01/20 03:45:59;;;;;;;124.20;39.50;;;;;;;-2.90;100.00;98082.67;221908;1276;22544;-74
2023/01/20 03:51:16;;;;;;;116.70;37.70;;;;;;;-2.87;100.00;98096.08;221983;1276;22588;-74
2023/01/20 03:56:32;;;;;;;120.20;38.30;;;;;;;-2.75;100.00;98107.33;221900;1274;22605;-73
2023/01/20 04:01:38;;;;;;;132.40;41.30;;;;;;;-2.59;100.00;98113.14;221898;1276;25491;-73
2023/01/20 04:06:42;;;;;;;141.60;45.60;;;;;;;-2.45;100.00;98109.39;221821;1276;22537;-73
2023/01/20 04:11:45;;;;;;;130.60;42.30;;;;;;;-2.32;100.00;98106.11;221943;1276;24209;-73
2023/01/20 04:16:56;;;;;;;134.00;45.20;;;;;;;-2.19;100.00;98114.39;221882;1274;22713;-73
2023/01/20 04:22:06;;;;;;;122.10;35.70;;;;;;;-2.05;100.00;98119.73;221784;1276;25242;-73
2023/01/20 04:27:08;;;;;;;108.10;30.60;;;;;;;-1.94;100.00;98134.38;221864;1264;25382;-74
2023/01/20 04:32:11;;;;;;;155.70;40.70;;;;;;;-1.82;100.00;98134.41;221804;1276;22541;-75
2023/01/20 04:37:14;;;;;;;119.00;33.10;;;;;;;-1.69;100.00;98147.64;221762;1276;25240;-74
2023/01/20 04:42:16;;;;;;;179.20;43.00;;;;;;;-1.60;100.00;98154.55;221909;1273;23292;-74
2023/01/20 04:47:18;;;;;;;127.50;34.70;;;;;;;-1.55;100.00;98148.95;221782;1276;24297;-74
2023/01/20 04:52:20;;;;;;;251.40;56.10;;;;;;;-1.51;100.00;98138.74;221762;1259;22652;-74
2023/01/20 04:57:22;;;;;;;263.70;65.70;;;;;;;-1.50;100.00;98133.42;221866;1271;22593;-74
2023/01/20 05:02:25;;;;;;;284.20;66.30;;;;;;;-1.52;100.00;98139.40;221876;1276;22573;-73
2023/01/20 05:07:27;;;;;;;273.80;67.50;;;;;;;-1.56;100.00;98153.61;222019;1273;22778;-74
2023/01/20 05:12:29;;;;;;;172.40;43.50;;;;;;;-1.61;100.00;98161.84;221850;1267;22553;-73
2023/01/20 05:17:32;;;;;;;255.20;59.10;;;;;;;-1.68;100.00;98169.62;222020;1270;22536;-74
2023/01/20 05:22:33;;;;;;;277.10;66.80;;;;;;;-1.73;100.00;98177.48;221853;1276;23012;-74
2023/01/20 05:27:36;;;;;;;144.10;39.70;;;;;;;-1.73;100.00;98188.78;221811;1274;22752;-74
2023/01/20 05:32:45;;;;;;;215.50;53.00;;;;;;;-1.73;100.00;98189.04;221871;1276;22602;-74
2023/01/20 05:37:47;;;;;;;202.70;50.30;;;;;;;-1.73;100.00;98174.81;221888;1276;22922;-74
2023/01/20 05:42:52;;;;;;;205.60;49.00;;;;;;;-1.74;100.00;98174.26;221953;1276;22919;-73
2023/01/20 05:47:58;;;;;;;190.60;49.30;;;;;;;-1.76;100.00;98178.05;221987;1276;24353;-74
2023/01/20 05:53:00;;;;;;;186.50;44.60;;;;;;;-1.82;100.00;98180.63;221814;1261;22656;-75
2023/01/20 05:58:04;;;;;;;174.70;42.60;;;;;;;-1.90;100.00;98185.50;222003;1276;22533;-73
2023/01/20 06:03:08;;;;;;;170.30;45.90;;;;;;;-1.99;100.00;98189.08;221926;1273;22549;-74
2023/01/20 06:08:11;;;;;;;148.20;38.80;;;;;;;-2.13;100.00;98196.06;221912;1276;22527;-74
2023/01/20 06:13:13;;;;;;;89.70;26.40;;;;;;;-2.27;100.00;98201.59;221817;1276;22583;-74
2023/01/20 06:18:18;;;;;;;125.00;35.90;;;;;;;-2.42;100.00;98209.27;221986;1276;24236;-74
2023/01/20 06:23:20;;;;;;;119.90;36.40;;;;;;;-2.53;100.00;98220.59;221894;1276;22612;-73
2023/01/20 06:28:22;;;;;;;144.50;40.50;;;;;;;-2.61;100.00;98224.06;221924;1274;22753;-74
2023/01/20 06:33:24;;;;;;;142.80;40.20;;;;;;;-2.68;100.00;98230.60;221900;1276;22710;-74
2023/01/20 06:38:30;;;;;;;134.90;38.60;;;;;;;-2.76;100.00;98227.13;221640;1276;22789;-74
2023/01/20 06:43:34;;;;;;;125.00;34.90;;;;;;;-2.82;100.00;98235.05;222125;1276;23423;-74
2023/01/20 06:48:36;;;;;;;161.20;42.80;;;;;;;-2.89;100.00;98240.67;221886;1276;22641;-72
2023/01/20 06:53:39;;;;;;;122.10;34.30;;;;;;;-2.93;100.00;98241.39;221913;1276;25585;-74
2023/01/20 06:58:41;;;;;;;135.60;38.40;;;;;;;-2.97;100.00;98234.80;222277;1263;22544;-74
2023/01/20 07:03:44;;;;;;;149.00;39.20;;;;;;;-3.00;100.00;98240.98;223026;1257;22624;-74
2023/01/20 07:08:46;;;;;;;152.00;38.40;;;;;;;-2.99;100.00;98262.67;222445;1269;139985;-73
2023/01/20 07:13:48;;;;;;;133.90;39.90;;;;;;;-2.93;100.00;98275.35;222042;1263;139190;-74
2023/01/20 07:18:51;;;;;;;151.60;40.80;;;;;;;-2.82;100.00;98275.73;222090;1270;22608;-73
2023/01/20 07:23:54;;;;;;;141.30;40.30;;;;;;;-2.69;100.00;98262.77;221785;1273;138605;-74
2023/01/20 07:28:58;;;;;;;158.90;43.80;;;;;;;-2.55;100.00;98269.96;222173;1259;139027;-73
2023/01/20 07:34:00;;;;;;;146.60;42.20;;;;;;;-2.42;100.00;98278.89;222051;1273;139460;-72
2023/01/20 07:39:02;;;;;;;174.90;40.40;;;;;;;-2.28;100.00;98283.17;222022;1270;139472;-72
2023/01/20 07:44:04;;;;;;;168.50;43.00;;;;;;;-2.15;100.00;98288.54;222158;1263;138876;-72
2023/01/20 07:49:06;;;;;;;155.80;41.00;;;;;;;-2.05;100.00;98295.40;222262;1263;26561;-74
2023/01/20 07:54:10;;;;;;;178.60;41.80;;;;;;;-1.95;100.00;98299.70;222290;1262;138545;-73
2023/01/20 07:59:12;;;;;;;150.60;36.10;;;;;;;-1.84;100.00;98306.56;222295;1259;140375;-73
2023/01/20 08:04:14;;;;;;;143.40;36.40;;;;;;;-1.75;100.00;98304.08;222306;1270;138756;-73
2023/01/20 08:09:16;;;;;;;140.90;37.00;;;;;;;-1.69;100.00;98310.27;222460;1262;139985;-73
2023/01/20 08:14:19;;;;;;;110.20;33.00;;;;;;;-1.66;100.00;98312.98;222264;1260;139202;-73
2023/01/20 08:19:21;;;;;;;135.20;37.20;;;;;;;-1.62;100.00;98315.21;222302;1272;22533;-74
2023/01/20 08:24:23;;;;;;;124.10;32.20;;;;;;;-1.58;100.00;98327.45;221979;1272;139316;-73
2023/01/20 08:29:26;;;;;;;97.90;31.20;;;;;;;-1.58;100.00;98333.95;222053;1260;138958;-73
2023/01/20 08:34:29;;;;;;;90.60;25.40;;;;;;;-1.58;100.00;98341.30;222084;1262;139014;-73
2023/01/20 08:39:31;;;;;;;123.10;36.00;;;;;;;-1.55;100.00;98349.59;222043;1269;138661;-73
2023/01/20 08:44:34;;;;;;;117.20;34.40;;;;;;;-1.51;100.00;98352.02;222177;1270;139395;-74
2023/01/20 08:49:36;;;;;;;131.10;38.00;;;;;;;-1.48;100.00;98349.69;222272;1270;24257;-73
2023/01/20 08:54:38;;;;;;;128.90;35.10;;;;;;;-1.42;100.00;98350.90;222004;1263;138388;-73
2023/01/20 08:59:41;;;;;;;120.30;34.60;;;;;;;-1.29;100.00;98355.40;222106;1263;139068;-73
2023/01/20 09:04:43;;;;;;;139.60;35.90;;;;;;;-1.18;100.00;98369.90;222122;1260;139795;-73
2023/01/20 09:09:48;;;;;;;121.20;33.40;;;;;;;-1.04;100.00;98369.52;222263;1264;138755;-73
2023/01/20 09:14:50;;;;;;;89.40;27.60;;;;;;;-0.97;100.00;98374.61;222649;1272;139387;-71
2023/01/20 09:19:53;;;;;;;93.40;29.10;;;;;;;-0.95;100.00;98375.61;222031;1269;138933;-72
2023/01/20 09:24:56;;;;;;;106.10;32.10;;;;;;;-0.91;100.00;98380.55;222242;1263;22566;-73
2023/01/20 09:30:31;;;;;;;91.50;26.50;;;;;;;-0.85;100.00;98383.58;222123;1254;138433;-73
2023/01/20 09:35:40;;;;;;;79.70;26.30;;;;;;;-0.80;100.00;98382.98;218007;1262;5548798;-73
2023/01/20 09:47:20;;;;;;;118.70;34.70;;;;;;;-0.58;100.00;98363.02;222172;1273;138740;-74
2023/01/20 09:58:47;;;;;;;107.50;33.70;;;;;;;-0.32;100.00;98357.78;222051;1275;138762;-73
2023/01/20 10:04:29;;;;;;;104.10;31.20;;;;;;;-0.27;100.00;98364.47;221559;1270;139206;-74
2023/01/20 10:09:43;;;;;;;97.00;30.00;;;;;;;-0.24;100.00;98365.58;222460;1263;139262;-74
2023/01/20 10:15:06;;;;;;;96.00;30.00;;;;;;;-0.21;100.00;98360.69;222343;1256;138586;-75
2023/01/20 10:20:38;;;;;;;104.60;32.40;;;;;;;-0.16;100.00;98351.17;222379;1263;138633;-73
2023/01/20 10:25:48;;;;;;;97.70;30.20;;;;;;;-0.10;100.00;98346.40;222326;1253;22563;-74
2023/01/20 10:30:50;;;;;;;95.60;29.10;;;;;;;-0.06;100.00;98348.86;222498;1259;22631;-73
2023/01/20 10:35:55;;;;;;;96.00;28.60;;;;;;;-0.02;100.00;98345.47;222221;1266;139251;-72
2023/01/20 10:41:11;;;;;;;85.40;28.00;;;;;;;0.00;100.00;98352.67;222184;1271;139491;-72
2023/01/20 10:46:46;;;;;;;82.20;25.90;;;;;;;0.02;100.00;98354.14;222100;1259;139275;-73
2023/01/20 10:52:10;;;;;;;101.80;29.40;;;;;;;0.08;100.00;98357.23;221902;1277;139012;-71
2023/01/20 10:57:14;;;;;;;96.40;28.10;;;;;;;0.15;100.00;98355.21;221987;1259;139389;-72
2023/01/20 11:02:21;;;;;;;102.00;30.60;;;;;;;0.26;100.00;98356.59;222014;1263;138954;-74
2023/01/20 11:07:24;;;;;;;106.30;30.20;;;;;;;0.39;100.00;98353.22;221966;1256;25379;-72
2023/01/20 11:12:31;;;;;;;95.70;29.30;;;;;;;0.49;100.00;98359.67;222728;1270;138821;-71
2023/01/20 11:17:33;;;;;;;98.50;30.40;;;;;;;0.64;100.00;98355.75;222226;1266;139069;-72
2023/01/20 11:22:36;;;;;;;90.90;26.00;;;;;;;0.77;100.00;98348.83;222125;1262;139228;-72
2023/01/20 11:27:44;;;;;;;93.20;28.90;;;;;;;0.85;100.00;98342.23;222179;1272;138933;-73
2023/01/20 11:33:07;;;;;;;80.80;26.90;;;;;;;0.94;100.00;98332.45;222629;1269;139153;-73
2023/01/20 11:38:23;;;;;;;75.90;26.10;;;;;;;1.03;100.00;98322.98;222117;1272;139020;-73
2023/01/20 11:43:33;;;;;;;66.70;22.30;;;;;;;1.07;100.00;98321.20;222178;1266;23440;-74
2023/01/20 11:48:35;;;;;;;73.90;24.40;;;;;;;1.06;100.00;98325.24;222006;1270;138777;-73
2023/01/20 11:53:38;;;;;;;70.60;24.30;;;;;;;1.10;100.00;98316.35;221969;1260;139019;-73
2023/01/20 11:59:00;;;;;;;66.70;23.70;;;;;;;1.09;100.00;98308.04;221979;1262;138546;-74
2023/01/20 12:04:22;;;;;;;62.80;21.50;;;;;;;1.06;100.00;98299.17;222093;1263;139056;-72
2023/01/20 12:09:31;;;;;;;70.50;23.20;;;;;;;1.00;100.00;98298.70;222067;1263;139065;-73
2023/01/20 12:14:42;;;;;;;67.20;23.60;;;;;;;0.99;100.00;98295.41;221960;1262;138956;-73
2023/01/20 12:20:18;;;;;;;50.10;19.00;;;;;;;0.99;100.00;98294.94;222096;1270;25418;-74
2023/01/20 12:25:25;;;;;;;50.80;19.30;;;;;;;0.86;100.00;98295.21;222097;1254;22557;-74
2023/01/20 12:30:37;;;;;;;57.40;21.60;;;;;;;0.81;100.00;98295.03;222067;1263;138534;-73
2023/01/20 12:35:55;;;;;;;48.00;19.20;;;;;;;0.73;100.00;98295.44;222109;1256;139462;-73
2023/01/20 12:41:04;;;;;;;46.80;18.30;;;;;;;0.75;100.00;98302.54;222135;1270;138713;-72
2023/01/20 12:46:37;;;;;;;35.30;14.80;;;;;;;0.76;100.00;98313.48;222047;1265;138386;-74
2023/01/20 12:51:41;;;;;;;36.10;15.30;;;;;;;0.65;100.00;98328.66;222083;1259;138397;-73
2023/01/20 12:56:59;;;;;;;43.50;17.60;;;;;;;0.56;100.00;98334.02;222020;1272;138802;-72
2023/01/20 13:02:36;;;;;;;45.20;18.20;;;;;;;0.49;100.00;98343.37;221818;1272;138410;-73
2023/01/20 13:08:17;;;;;;;47.10;19.00;;;;;;;0.44;100.00;98350.17;222125;1259;25425;-74
2023/01/20 13:13:39;;;;;;;50.80;20.10;;;;;;;0.39;100.00;98354.70;222157;1270;24217;-73
2023/01/20 13:19:29;;;;;;;51.40;20.40;;;;;;;0.33;100.00;98352.90;221997;1272;24359;-73
2023/01/20 13:24:31;;;;;;;56.80;19.60;;;;;;;0.30;100.00;98357.94;221936;1271;138371;-72
2023/01/20 13:29:33;;;;;;;55.10;21.10;;;;;;;0.29;100.00;98370.48;222063;1275;138697;-72
2023/01/20 13:34:39;;;;;;;63.40;21.30;;;;;;;0.29;100.00;98379.38;222131;1259;138815;-72
2023/01/20 13:39:50;;;;;;;62.10;21.50;;;;;;;0.27;100.00;98384.62;222220;1271;138603;-73
2023/01/20 13:45:10;;;;;;;55.90;20.50;;;;;;;0.25;100.00;98388.40;222108;1259;138711;-73
2023/01/20 13:50:36;;;;;;;58.70;22.60;;;;;;;0.19;100.00;98387.69;222156;1263;139013;-73
2023/01/20 13:55:39;;;;;;;61.30;24.30;;;;;;;0.14;100.00;98386.42;222163;1273;22807;-73
2023/01/20 14:00:43;;;;;;;62.20;23.20;;;;;;;0.08;100.00;98395.20;222116;1273;138521;-72
2023/01/20 14:06:07;;;;;;;72.10;23.10;;;;;;;0.06;100.00;98400.10;222048;1267;139252;-73
2023/01/20 14:11:25;;;;;;;66.40;25.00;;;;;;;0.01;100.00;98391.67;221978;1272;138771;-73
2023/01/20 14:16:36;;;;;;;66.30;24.60;;;;;;;-0.00;100.00;98383.65;221941;1257;139423;-73
2023/01/20 14:21:39;;;;;;;68.50;25.00;;;;;;;-0.01;100.00;98383.36;221898;1270;138884;-73
2023/01/20 14:26:41;;;;;;;64.10;23.00;;;;;;;-0.03;100.00;98385.95;221893;1270;138824;-72
2023/01/20 14:31:44;;;;;;;75.10;27.00;;;;;;;-0.05;100.00;98385.59;221970;1259;25356;-73
2023/01/20 14:36:47;;;;;;;63.20;24.50;;;;;;;-0.06;100.00;98389.16;222000;1272;139429;-72
2023/01/20 14:41:54;;;;;;;77.80;27.90;;;;;;;-0.10;100.00;98389.67;221951;1272;139753;-72
2023/01/20 14:46:58;;;;;;;74.80;25.70;;;;;;;-0.11;100.00;98384.70;221874;1272;139462;-72
2023/01/20 14:52:01;;;;;;;68.90;25.10;;;;;;;-0.13;100.00;98382.55;221731;1272;139006;-72
2023/01/20 14:57:42;;;;;;;65.70;25.50;;;;;;;-0.15;100.00;98380.51;221818;1276;138786;-72
2023/01/20 15:02:53;;;;;;;64.40;25.70;;;;;;;-0.18;100.00;98402.52;222056;1263;24343;-73
2023/01/20 15:08:23;;;;;;;61.80;23.90;;;;;;;-0.21;100.00;98411.95;221766;1278;26441;-73
2023/01/20 15:13:29;;;;;;;62.50;24.80;;;;;;;-0.23;100.00;98421.60;221696;1275;24235;-73
2023/01/20 15:18:32;;;;;;;67.10;25.30;;;;;;;-0.24;100.00;98419.83;221910;1275;22594;-73
2023/01/20 15:23:37;;;;;;;65.00;24.60;;;;;;;-0.25;100.00;98425.92;221672;1278;22797;-72
2023/01/20 15:28:43;;;;;;;72.40;26.10;;;;;;;-0.27;100.00;98431.94;221623;1272;24257;-72
2023/01/20 15:33:47;;;;;;;56.10;23.90;;;;;;;-0.27;100.00;98432.92;221775;1275;26277;-73
2023/01/20 15:38:49;;;;;;;68.60;26.40;;;;;;;-0.27;100.00;98431.51;221685;1278;25490;-73
2023/01/20 15:43:51;;;;;;;67.60;25.80;;;;;;;-0.27;100.00;98433.77;221562;1278;22652;-73
2023/01/20 15:49:01;;;;;;;63.10;24.50;;;;;;;-0.28;100.00;98431.45;221531;1276;24389;-72
2023/01/20 15:54:06;;;;;;;58.50;22.20;;;;;;;-0.28;100.00;98432.48;221356;1275;22587;-72
2023/01/20 15:59:19;;;;;;;53.70;22.60;;;;;;;-0.29;100.00;98435.73;221644;1275;22604;-72
2023/01/20 16:04:23;;;;;;;64.70;22.90;;;;;;;-0.28;100.00;98442.23;221711;1275;23770;-73
2023/01/20 16:09:28;;;;;;;53.90;20.70;;;;;;;-0.27;100.00;98445.80;221673;1275;22546;-75
2023/01/20 16:14:33;;;;;;;53.30;21.70;;;;;;;-0.26;100.00;98451.21;221731;1277;25392;-73
2023/01/20 16:19:37;;;;;;;63.60;24.30;;;;;;;-0.26;100.00;98453.06;221657;1275;22640;-72
2023/01/20 16:24:40;;;;;;;71.60;27.00;;;;;;;-0.24;100.00;98456.69;221613;1278;22547;-72
2023/01/20 16:29:43;;;;;;;75.60;27.30;;;;;;;-0.24;100.00;98459.02;221779;1278;22541;-73
2023/01/20 16:34:45;;;;;;;71.10;25.30;;;;;;;-0.22;100.00;98464.95;221464;1263;22572;-72
2023/01/20 16:39:47;;;;;;;73.70;24.70;;;;;;;-0.21;100.00;98465.75;221475;1278;24247;-72
2023/01/20 16:44:51;;;;;;;64.40;23.60;;;;;;;-0.20;100.00;98470.52;221607;1278;22664;-73
2023/01/20 16:49:53;;;;;;;66.20;23.50;;;;;;;-0.19;100.00;98474.63;221511;1278;22834;-73
2023/01/20 16:54:55;;;;;;;67.40;26.10;;;;;;;-0.18;100.00;98470.64;221626;1272;25357;-72
2023/01/20 16:59:58;;;;;;;75.10;26.20;;;;;;;-0.18;100.00;98471.34;221616;1278;22708;-72
2023/01/20 17:05:01;;;;;;;63.20;23.70;;;;;;;-0.19;100.00;98470.54;221715;1275;25347;-72
2023/01/20 17:10:07;;;;;;;78.70;25.70;;;;;;;-0.18;100.00;98473.39;221503;1278;22539;-72
2023/01/20 17:15:10;;;;;;;65.30;22.60;;;;;;;-0.17;100.00;98478.82;221503;1278;23811;-75
2023/01/20 17:20:12;;;;;;;67.90;25.40;;;;;;;-0.20;100.00;98482.46;221690;1278;22539;-74
2023/01/20 17:25:18;;;;;;;86.90;28.70;;;;;;;-0.20;100.00;98486.61;221758;1278;24537;-72
2023/01/20 17:30:20;;;;;;;83.70;28.80;;;;;;;-0.20;100.00;98493.61;221716;1273;24244;-72
2023/01/20 17:35:26;;;;;;;82.30;28.90;;;;;;;-0.22;100.00;98492.81;221471;1277;22527;-73
2023/01/20 17:40:30;;;;;;;72.40;24.40;;;;;;;-0.22;100.00;98491.82;221624;1278;22588;-72
2023/01/20 17:45:33;;;;;;;87.20;27.90;;;;;;;-0.24;100.00;98497.09;221572;1278;22560;-72
2023/01/20 17:50:37;;;;;;;86.00;29.40;;;;;;;-0.24;100.00;98493.50;221580;1273;22532;-72
2023/01/20 17:55:40;;;;;;;99.20;32.80;;;;;;;-0.25;100.00;98482.74;221640;1275;22537;-72
2023/01/20 18:00:43;;;;;;;97.30;30.20;;;;;;;-0.27;100.00;98483.16;221590;1278;22548;-72
2023/01/20 18:05:46;;;;;;;98.80;29.70;;;;;;;-0.29;100.00;98480.33;221765;1278;23479;-72
2023/01/20 18:10:50;;;;;;;98.30;29.30;;;;;;;-0.33;100.00;98475.44;221634;1275;22573;-73
2023/01/20 18:15:52;;;;;;;97.70;32.40;;;;;;;-0.36;100.00;98476.30;221755;1278;24194;-73
2023/01/20 18:20:55;;;;;;;103.30;33.70;;;;;;;-0.40;100.00;98473.99;221677;1278;24283;-73
2023/01/20 18:25:57;;;;;;;112.30;30.40;;;;;;;-0.44;100.00;98467.25;221448;1278;22572;-73
2023/01/20 18:31:09;;;;;;;112.10;31.40;;;;;;;-0.48;100.00;98465.89;221618;1276;22660;-73
2023/01/20 18:36:14;;;;;;;102.70;30.30;;;;;;;-0.50;100.00;98458.84;221638;1275;22536;-73
2023/01/20 18:41:20;;;;;;;119.30;30.80;;;;;;;-0.52;100.00;98450.80;221561;1275;24291;-73
2023/01/20 18:46:24;;;;;;;118.10;32.90;;;;;;;-0.53;100.00;98452.20;221597;1275;24409;-74
2023/01/20 18:51:29;;;;;;;114.60;32.20;;;;;;;-0.54;100.00;98449.38;221564;1276;22999;-73
2023/01/20 18:56:33;;;;;;;104.60;31.00;;;;;;;-0.56;100.00;98444.79;221602;1278;22617;-73
2023/01/20 19:01:39;;;;;;;101.50;31.70;;;;;;;-0.57;100.00;98445.41;221636;1278;22570;-74
2023/01/20 19:06:43;;;;;;;99.50;30.70;;;;;;;-0.57;100.00;98437.45;221818;1276;24183;-72
2023/01/20 19:11:46;;;;;;;107.20;30.90;;;;;;;-0.61;100.00;98431.79;221693;1278;24401;-73
2023/01/20 19:16:50;;;;;;;113.80;32.70;;;;;;;-0.65;100.00;98437.80;221753;1276;22570;-73
2023/01/20 19:21:52;;;;;;;105.80;32.30;;;;;;;-0.69;100.00;98428.24;221665;1257;22654;-72
2023/01/20 19:26:56;;;;;;;113.90;32.50;;;;;;;-0.71;100.00;98427.34;221637;1275;22603;-73
2023/01/20 19:31:59;;;;;;;109.30;31.70;;;;;;;-0.73;100.00;98428.14;221620;1275;22606;-73
2023/01/20 19:37:02;;;;;;;104.50;32.00;;;;;;;-0.76;100.00;98422.02;221568;1275;26930;-73
2023/01/20 19:42:04;;;;;;;107.50;30.00;;;;;;;-0.77;100.00;98418.69;221557;1273;24470;-74
2023/01/20 19:47:06;;;;;;;92.10;29.00;;;;;;;-0.78;100.00;98420.13;221473;1278;24442;-73
2023/01/20 19:52:08;;;;;;;101.20;29.80;;;;;;;-0.80;100.00;98421.44;221458;1278;25469;-74
2023/01/20 19:57:10;;;;;;;101.80;29.60;;;;;;;-0.82;100.00;98423.61;221640;1275;22534;-74
2023/01/20 20:02:12;;;;;;;98.00;28.40;;;;;;;-0.83;100.00;98423.42;221594;1272;22660;-74
2023/01/20 20:07:15;;;;;;;116.20;29.20;;;;;;;-0.83;100.00;98419.09;221481;1275;22611;-75
2023/01/20 20:12:17;;;;;;;96.40;28.70;;;;;;;-0.85;100.00;98419.10;221565;1278;25236;-75
2023/01/20 20:17:19;;;;;;;97.60;29.50;;;;;;;-0.85;100.00;98426.30;221616;1276;25551;-73
2023/01/20 20:22:22;;;;;;;99.40;26.80;;;;;;;-0.85;100.00;98423.31;221648;1270;22560;-75
2023/01/20 20:27:25;;;;;;;94.90;30.10;;;;;;;-0.83;100.00;98427.76;221543;1276;24121;-76
2023/01/20 20:32:28;;;;;;;94.90;27.00;;;;;;;-0.82;100.00;98419.23;221666;1278;22922;-74
2023/01/20 20:37:30;;;;;;;82.90;25.60;;;;;;;-0.80;100.00;98427.39;221631;1275;24739;-75
2023/01/20 20:42:33;;;;;;;90.30;27.20;;;;;;;-0.79;100.00;98426.89;221568;1276;23267;-75
2023/01/20 20:47:36;;;;;;;68.70;24.10;;;;;;;-0.78;100.00;98418.02;221619;1278;23768;-74
2023/01/20 20:52:38;;;;;;;80.20;24.40;;;;;;;-0.78;100.00;98408.59;221658;1278;22586;-74
2023/01/20 20:57:40;;;;;;;82.90;24.20;;;;;;;-0.80;100.00;98402.24;221716;1275;24271;-75
2023/01/20 21:02:44;;;;;;;73.40;23.80;;;;;;;-0.81;100.00;98397.90;221628;1278;24636;-75
2023/01/20 21:07:47;;;;;;;78.20;23.20;;;;;;;-0.83;100.00;98394.25;221742;1275;22724;-75
2023/01/20 21:12:50;;;;;;;76.50;23.10;;;;;;;-0.85;100.00;98390.59;221585;1278;22501;-76
2023/01/20 21:17:52;;;;;;;74.40;24.50;;;;;;;-0.85;100.00;98389.48;221788;1275;22743;-76
2023/01/20 21:22:57;;;;;;;69.20;22.30;;;;;;;-0.86;100.00;98385.10;221670;1278;22545;-75
2023/01/20 21:27:59;;;;;;;69.80;22.50;;;;;;;-0.90;100.00;98395.41;221681;1278;25363;-76
2023/01/20 21:33:01;;;;;;;56.60;19.90;;;;;;;-0.92;100.00;98396.41;221475;1275;220165;-77
2023/01/20 21:38:07;;;;;;;73.30;19.70;;;;;;;-0.94;100.00;98394.05;221712;1278;22711;-74
2023/01/20 21:53:52;;;;;;;67.20;18.90;;;;;;;-0.97;100.00;98383.95;221639;1278;22567;-75
2023/01/20 21:58:54;;;;;;;64.30;16.80;;;;;;;-0.97;100.00;98375.91;221605;1278;22597;-75
2023/01/20 22:03:57;;;;;;;64.10;18.90;;;;;;;-0.98;100.00;98376.69;221682;1275;23393;-76
2023/01/20 22:08:59;;;;;;;60.00;17.80;;;;;;;-0.97;100.00;98377.07;221647;1275;23051;-74
2023/01/20 22:14:08;;;;;;;55.50;15.90;;;;;;;-0.98;100.00;98375.11;221645;1278;22599;-74
2023/01/20 22:19:13;;;;;;;58.70;16.90;;;;;;;-0.99;100.00;98368.52;221703;1278;24291;-75
2023/01/20 22:24:16;;;;;;;66.80;19.70;;;;;;;-0.99;100.00;98373.77;221815;1278;22639;-74
2023/01/20 22:29:19;;;;;;;66.10;18.10;;;;;;;-0.98;100.00;98370.90;221686;1278;22594;-75
2023/01/20 22:34:21;;;;;;;54.60;16.30;;;;;;;-0.97;100.00;98371.04;221788;1278;22883;-75
2023/01/20 22:39:23;;;;;;;57.70;18.60;;;;;;;-0.96;100.00;98372.73;221690;1278;24403;-75
2023/01/20 22:44:26;;;;;;;54.40;17.00;;;;;;;-0.97;100.00;98383.66;221597;1278;22547;-74
2023/01/20 22:49:28;;;;;;;58.60;18.60;;;;;;;-0.97;100.00;98379.49;221641;1278;26766;-75
2023/01/20 22:54:31;;;;;;;58.80;18.60;;;;;;;-0.97;100.00;98374.23;221606;1278;24263;-74
2023/01/20 22:59:38;;;;;;;63.40;18.90;;;;;;;-0.98;100.00;98374.25;221661;1278;22659;-75
2023/01/20 23:04:40;;;;;;;56.30;16.80;;;;;;;-0.98;100.00;98374.73;221597;1276;22534;-74
2023/01/20 23:09:45;;;;;;;50.50;17.00;;;;;;;-0.99;100.00;98366.83;221662;1278;22492;-75
2023/01/20 23:15:03;;;;;;;57.80;16.00;;;;;;;-1.00;100.00;98368.58;221668;1278;24043;-74